createdAt,value
2023-03-18T00:03:20.536Z,55.79
2023-03-18T00:08:22.906Z,55.47
2023-03-18T00:13:25.875Z,55.51
2023-03-18T00:18:28.344Z,55.43
2023-03-18T00:23:31.703Z,55.77
2023-03-18T00:28:34.127Z,55.53
2023-03-18T00:33:40.899Z,55.83
2023-03-18T00:38:46.136Z,55.45
2023-03-18T00:43:53.097Z,55.57
2023-03-18T00:48:57.813Z,55.60
2023-03-18T00:54:02.217Z,55.48
2023-03-18T00:59:06.320Z,55.31
2023-03-18T01:04:08.874Z,55.57
2023-03-18T01:09:11.995Z,55.41
2023-03-18T01:14:14.957Z,55.42
2023-03-18T01:19:17.229Z,55.66
2023-03-18T01:24:19.383Z,55.64
2023-03-18T01:29:23.292Z,55.40
2023-03-18T01:34:25.431Z,55.57
2023-03-18T01:39:28.296Z,55.67
2023-03-18T01:44:31.162Z,55.62
2023-03-18T01:49:39.692Z,55.40
2023-03-18T01:55:01.324Z,55.33
2023-03-18T02:00:06.003Z,55.32
2023-03-18T02:10:30.132Z,55.26
2023-03-18T02:15:35.854Z,55.53
2023-03-18T02:20:56.055Z,55.25
2023-03-18T02:26:23.113Z,55.26
2023-03-18T02:31:27.474Z,55.20
2023-03-18T02:36:32.256Z,54.91
2023-03-18T02:41:37.758Z,55.16
2023-03-18T02:47:16.960Z,55.31
2023-03-18T02:52:19.027Z,55.24
2023-03-18T02:57:21.452Z,55.27
2023-03-18T03:02:24.120Z,55.07
2023-03-18T03:07:28.145Z,55.21
2023-03-18T03:12:32.320Z,55.29
2023-03-18T03:17:35.964Z,55.31
2023-03-18T03:22:38.141Z,55.41
2023-03-18T03:27:40.345Z,55.29
2023-03-18T03:32:42.885Z,55.34
2023-03-18T03:37:46.030Z,55.35
2023-03-18T03:42:49.226Z,55.18
2023-03-18T03:47:51.793Z,55.42
2023-03-18T03:52:54.384Z,55.46
2023-03-18T03:57:57.097Z,55.32
2023-03-18T04:03:00.518Z,55.44
2023-03-18T04:08:04.075Z,55.21
2023-03-18T04:13:11.718Z,55.28
2023-03-18T04:18:17.118Z,55.28
2023-03-18T04:23:21.030Z,55.31
2023-03-18T04:28:23.189Z,55.35
2023-03-18T04:33:25.775Z,55.35
2023-03-18T04:38:28.693Z,55.24
2023-03-18T04:43:31.717Z,55.25
2023-03-18T04:48:34.015Z,55.46
2023-03-18T04:53:39.801Z,55.45
2023-03-18T04:58:44.228Z,55.50
2023-03-18T05:03:52.067Z,55.49
2023-03-18T05:08:57.446Z,55.34
2023-03-18T05:14:02.214Z,55.27
2023-03-18T05:19:12.260Z,55.31
2023-03-18T05:24:23.110Z,55.25
2023-03-18T05:29:25.762Z,55.40
2023-03-18T05:34:45.987Z,55.57
2023-03-18T05:39:48.543Z,55.36
2023-03-18T05:44:55.420Z,55.45
2023-03-18T05:49:59.961Z,55.42
2023-03-18T05:55:03.467Z,55.39
2023-03-18T06:00:10.401Z,55.30
2023-03-18T06:05:19.261Z,55.10
2023-03-18T06:10:23.685Z,55.26
2023-03-18T06:15:25.943Z,55.20
2023-03-18T06:20:28.152Z,55.35
2023-03-18T06:25:31.585Z,55.36
2023-03-18T06:30:34.656Z,55.17
2023-03-18T06:35:36.961Z,55.52
2023-03-18T06:40:39.226Z,55.44
2023-03-18T06:45:42.392Z,55.43
2023-03-18T06:50:45.484Z,55.11
2023-03-18T06:55:56.859Z,55.51
2023-03-18T07:01:03.154Z,55.50
2023-03-18T07:06:12.120Z,55.42
2023-03-18T07:11:16.840Z,55.34
2023-03-18T07:16:20.695Z,55.38
2023-03-18T07:21:22.845Z,55.37
2023-03-18T07:26:25.848Z,55.39
2023-03-18T07:31:28.202Z,55.34
2023-03-18T07:36:30.227Z,55.27
2023-03-18T07:41:32.392Z,55.19
2023-03-18T07:46:34.722Z,55.23
2023-03-18T07:51:36.786Z,55.00
2023-03-18T07:56:38.894Z,55.11
2023-03-18T08:01:41.638Z,55.27
2023-03-18T08:06:44.114Z,55.12
2023-03-18T08:11:46.338Z,55.46
2023-03-18T08:16:48.444Z,55.48
2023-03-18T08:21:50.556Z,55.35
2023-03-18T08:26:52.777Z,55.33
2023-03-18T08:31:54.965Z,55.38
2023-03-18T08:36:57.063Z,55.24
2023-03-18T08:41:59.789Z,55.65
2023-03-18T08:47:02.205Z,55.70
2023-03-18T08:52:04.660Z,55.76
2023-03-18T08:57:06.976Z,55.88
2023-03-18T09:02:17.016Z,56.11
2023-03-18T09:07:19.240Z,56.04
2023-03-18T09:12:21.215Z,56.03
2023-03-18T09:17:31.711Z,56.17
2023-03-18T09:22:43.114Z,56.33
2023-03-18T09:27:46.024Z,56.31
2023-03-18T09:32:49.131Z,56.16
2023-03-18T09:37:52.233Z,56.38
2023-03-18T09:43:05.917Z,56.69
2023-03-18T09:48:25.982Z,56.52
2023-03-18T09:53:53.056Z,56.80
2023-03-18T09:59:21.697Z,57.01
2023-03-18T10:04:33.971Z,56.59
2023-03-18T10:09:44.908Z,56.78
2023-03-18T10:14:53.523Z,56.91
2023-03-18T10:19:59.012Z,57.24
2023-03-18T10:25:15.045Z,57.28
2023-03-18T10:30:57.593Z,57.01
2023-03-18T10:36:09.626Z,57.21
2023-03-18T10:41:25.945Z,57.14
2023-03-18T10:46:30.724Z,57.24
2023-03-18T10:51:47.908Z,57.17
2023-03-18T10:56:50.907Z,57.15
2023-03-18T11:01:59.936Z,57.36
2023-03-18T11:07:03.978Z,57.49
2023-03-18T11:12:07.691Z,57.01
2023-03-18T11:17:23.995Z,56.99
2023-03-18T11:22:27.120Z,57.00
2023-03-18T11:27:37.754Z,57.00
2023-03-18T11:32:52.408Z,56.82
2023-03-18T11:37:54.548Z,56.45
2023-03-18T11:43:15.673Z,56.38
2023-03-18T11:48:35.838Z,56.35
2023-03-18T11:53:58.502Z,56.22
2023-03-18T11:59:22.345Z,56.29
2023-03-18T12:04:50.428Z,56.58
2023-03-18T12:09:53.731Z,56.44
2023-03-18T12:15:05.277Z,56.04
2023-03-18T12:20:41.255Z,56.15
2023-03-18T12:25:59.258Z,56.19
2023-03-18T12:31:14.390Z,56.30
2023-03-18T12:36:50.393Z,56.32
2023-03-18T12:42:16.608Z,56.28
2023-03-18T12:47:43.302Z,56.34
2023-03-18T12:52:53.402Z,56.35
2023-03-18T12:58:01.531Z,56.39
2023-03-18T13:03:35.754Z,56.37
2023-03-18T13:09:22.180Z,56.43
2023-03-18T13:15:02.768Z,56.64
2023-03-18T13:20:15.388Z,56.58
2023-03-18T13:25:41.218Z,56.39
2023-03-18T13:31:05.040Z,56.46
2023-03-18T13:36:10.708Z,56.47
2023-03-18T13:41:40.939Z,56.52
2023-03-18T13:46:54.126Z,56.48
2023-03-18T13:52:35.554Z,56.54
2023-03-18T13:57:57.484Z,56.53
2023-03-18T14:03:19.782Z,56.48
2023-03-18T14:08:39.971Z,56.43
2023-03-18T14:13:43.140Z,56.66
2023-03-18T14:18:45.307Z,56.77
2023-03-18T14:24:02.807Z,57.00
2023-03-18T14:29:08.026Z,56.99
2023-03-18T14:34:19.208Z,57.19
2023-03-18T14:39:38.383Z,57.33
2023-03-18T14:44:46.672Z,57.57
2023-03-18T14:50:15.970Z,57.36
2023-03-18T14:55:32.835Z,57.28
2023-03-18T15:00:37.034Z,57.24
2023-03-18T15:05:41.761Z,57.16
2023-03-18T15:10:50.251Z,57.24
2023-03-18T15:15:56.586Z,57.51
2023-03-18T15:21:08.033Z,57.71
2023-03-18T15:26:25.707Z,57.84
2023-03-18T15:31:43.078Z,57.89
2023-03-18T15:36:55.684Z,57.98
2023-03-18T15:41:59.220Z,57.81
2023-03-18T15:47:14.067Z,57.25
2023-03-18T15:52:17.544Z,57.26
2023-03-18T15:57:48.923Z,57.25
2023-03-18T16:02:51.785Z,57.32
2023-03-18T16:07:54.826Z,57.28
2023-03-18T16:13:02.102Z,57.36
2023-03-18T16:18:04.214Z,57.33
2023-03-18T16:23:06.438Z,57.21
2023-03-18T16:28:16.883Z,57.03
2023-03-18T16:33:20.317Z,57.08
2023-03-18T16:38:22.650Z,57.07
2023-03-18T16:43:28.289Z,57.18
2023-03-18T16:48:30.965Z,56.95
2023-03-18T16:53:33.501Z,56.96
2023-03-18T16:58:37.572Z,57.08
2023-03-18T17:03:39.674Z,56.78
2023-03-18T17:08:42.086Z,56.50
2023-03-18T17:13:44.238Z,56.49
2023-03-18T17:18:46.379Z,56.71
2023-03-18T17:23:49.062Z,56.74
2023-03-18T17:28:52.458Z,56.53
2023-03-18T17:33:54.620Z,56.36
2023-03-18T17:38:58.912Z,56.29
2023-03-18T17:44:01.242Z,56.24
2023-03-18T17:49:10.410Z,56.12
2023-03-18T17:54:13.625Z,56.17
2023-03-18T17:59:19.721Z,56.23
2023-03-18T18:04:24.998Z,56.30
2023-03-18T18:09:28.778Z,56.16
2023-03-18T18:14:32.468Z,56.24
2023-03-18T18:19:35.028Z,56.23
2023-03-18T18:24:38.449Z,56.17
2023-03-18T18:29:42.030Z,56.25
2023-03-18T18:34:44.188Z,56.20
2023-03-18T18:39:46.272Z,56.07
2023-03-18T18:44:48.458Z,56.43
2023-03-18T18:49:51.255Z,56.13
2023-03-18T18:54:53.539Z,55.82
2023-03-18T18:59:56.099Z,55.95
2023-03-18T19:04:58.822Z,55.89
2023-03-18T19:10:01.242Z,56.08
2023-03-18T19:15:03.497Z,56.13
2023-03-18T19:20:26.306Z,55.91
2023-03-18T19:25:28.618Z,56.03
2023-03-18T19:30:31.441Z,55.92
2023-03-18T19:35:33.955Z,55.94
2023-03-18T19:40:36.420Z,56.19
2023-03-18T19:45:38.618Z,55.82
2023-03-18T19:50:41.299Z,55.77
2023-03-18T19:55:44.190Z,55.79
2023-03-18T20:00:46.605Z,55.77
2023-03-18T20:05:49.041Z,55.87
2023-03-18T20:10:51.518Z,55.73
2023-03-18T20:15:53.933Z,55.58
2023-03-18T20:20:56.223Z,55.62
2023-03-18T20:25:58.483Z,55.41
2023-03-18T20:31:01.272Z,55.52
2023-03-18T20:36:03.863Z,55.67
2023-03-18T20:41:07.396Z,55.68
2023-03-18T20:46:13.457Z,55.57
2023-03-18T20:51:41.553Z,55.48
2023-03-18T20:56:44.122Z,55.63
2023-03-18T21:01:46.691Z,55.66
2023-03-18T21:06:48.943Z,55.72
2023-03-18T21:11:51.208Z,55.49
2023-03-18T21:16:53.393Z,55.64
2023-03-18T21:21:55.634Z,55.45
2023-03-18T21:27:04.814Z,55.38
2023-03-18T21:32:13.869Z,55.32
2023-03-18T21:37:18.089Z,55.29
2023-03-18T21:42:29.912Z,55.32
2023-03-18T21:47:31.996Z,55.71
2023-03-18T21:52:37.223Z,55.53
2023-03-18T21:57:39.484Z,55.08
2023-03-18T22:02:41.940Z,55.29
2023-03-18T22:07:44.012Z,55.27
2023-03-18T22:12:46.272Z,55.33
2023-03-18T22:17:48.551Z,55.47
2023-03-18T22:22:50.687Z,55.56
2023-03-18T22:27:52.846Z,55.48
2023-03-18T22:32:56.440Z,55.59
2023-03-18T22:37:58.700Z,55.47
2023-03-18T22:43:02.018Z,55.58
2023-03-18T22:48:05.030Z,55.33
2023-03-18T22:53:09.496Z,55.59
2023-03-18T22:58:22.683Z,55.61
2023-03-18T23:03:31.305Z,55.44
2023-03-18T23:08:33.666Z,55.63
2023-03-18T23:13:41.826Z,55.48
2023-03-18T23:18:44.451Z,55.40
2023-03-18T23:23:46.857Z,55.18
2023-03-18T23:28:49.501Z,55.21
2023-03-18T23:33:51.571Z,55.31
2023-03-18T23:38:53.799Z,55.46
2023-03-18T23:43:56.117Z,55.27
2023-03-18T23:48:58.301Z,55.15
2023-03-18T23:54:00.933Z,55.41
2023-03-18T23:59:03.147Z,55.46
